Time;durP1;ratioP1;P1;durP2;ratioP2;P2;SDS_P1;SDS_P2;PMS_P1;PMS_P2;Temp;Humidity;BMP_temperature;BMP_pressure;BME280_temperature;BME280_humidity;BME280_pressure;Samples;Min_cycle;Max_cycle;Signal;HPM_P1;HPM_P2
2022/01/14 00:01:27;;;;;;;36.27;11.80;;;;;;;;;;5073134;28;20086;-91
2022/01/14 00:03:52;;;;;;;30.03;11.63;;;;;;;;;;5073237;28;20480;-92
2022/01/14 00:06:17;;;;;;;28.43;11.07;;;;;;;;;;5073273;28;20071;-93
2022/01/14 00:08:42;;;;;;;43.67;11.63;;;;;;;;;;5073236;28;20012;-92
2022/01/14 00:11:14;;;;;;;34.10;11.03;;;;;;;;;;5073359;28;20510;-91
2022/01/14 00:14:08;;;;;;;27.15;11.27;;;;;;;;;;5073258;28;20024;-92
2022/01/14 00:16:34;;;;;;;43.73;13.40;;;;;;;;;;5052978;28;20033;-93
2022/01/14 00:18:59;;;;;;;26.10;10.93;;;;;;;;;;5052956;28;20029;-92
2022/01/14 00:21:25;;;;;;;34.97;11.17;;;;;;;;;;5052918;28;20014;-92
2022/01/14 00:23:53;;;;;;;26.70;10.83;;;;;;;;;;5054217;28;20024;-92
2022/01/14 00:31:56;;;;;;;30.17;11.73;;;;;;;;;;5074214;28;20392;-92
2022/01/14 00:34:21;;;;;;;24.87;11.87;;;;;;;;;;5073015;28;20020;-91
2022/01/14 00:36:46;;;;;;;29.93;11.43;;;;;;;;;;5072837;28;20020;-93
2022/01/14 00:39:12;;;;;;;23.63;10.53;;;;;;;;;;5073010;28;20021;-92
2022/01/14 00:41:38;;;;;;;27.57;11.33;;;;;;;;;;5072785;28;20024;-92
2022/01/14 00:44:07;;;;;;;63.87;11.90;;;;;;;;;;5072912;28;20107;-92
2022/01/14 00:46:33;;;;;;;22.30;11.27;;;;;;;;;;5074108;28;20103;-92
2022/01/14 00:48:58;;;;;;;49.80;11.83;;;;;;;;;;5072863;28;20522;-92
2022/01/14 00:51:23;;;;;;;27.77;11.00;;;;;;;;;;5072847;28;20549;-92
2022/01/14 00:53:48;;;;;;;29.83;11.70;;;;;;;;;;5072863;28;20027;-92
2022/01/14 00:56:45;;;;;;;31.07;10.40;;;;;;;;;;5072862;28;20115;-92
2022/01/14 00:59:15;;;;;;;20.30;10.47;;;;;;;;;;5072837;28;20369;-92
2022/01/14 01:01:49;;;;;;;21.87;10.93;;;;;;;;;;5072749;28;20024;-92
2022/01/14 01:04:15;;;;;;;30.27;11.70;;;;;;;;;;5072751;28;20027;-93
2022/01/14 01:06:41;;;;;;;36.63;11.97;;;;;;;;;;5071952;28;20115;-92
2022/01/14 01:09:10;;;;;;;36.97;13.13;;;;;;;;;;5072778;28;20055;-92
2022/01/14 01:11:39;;;;;;;42.83;12.33;;;;;;;;;;5072582;28;20024;-92
2022/01/14 01:14:15;;;;;;;37.27;12.70;;;;;;;;;;5072687;28;20052;-92
2022/01/14 01:16:40;;;;;;;23.43;10.90;;;;;;;;;;5073751;28;20024;-92
2022/01/14 01:19:05;;;;;;;52.60;11.47;;;;;;;;;;5072493;28;20036;-93
2022/01/14 01:21:31;;;;;;;128.07;13.40;;;;;;;;;;5072826;28;20096;-92
2022/01/14 01:23:56;;;;;;;51.40;13.30;;;;;;;;;;5072420;28;20025;-91
2022/01/14 01:26:29;;;;;;;48.03;12.67;;;;;;;;;;5071642;28;20122;-92
2022/01/14 01:29:30;;;;;;;93.80;15.13;;;;;;;;;;5052492;28;20044;-92
2022/01/14 01:31:52;;;;;;;41.30;12.73;;;;;;;;;;5053366;28;20481;-92
2022/01/14 01:34:19;;;;;;;36.97;12.07;;;;;;;;;;5052339;28;20028;-92
2022/01/14 01:36:45;;;;;;;33.27;12.90;;;;;;;;;;5052297;28;20025;-92
2022/01/14 01:39:11;;;;;;;59.40;13.23;;;;;;;;;;5055104;28;20377;-93
2022/01/14 01:41:38;;;;;;;40.33;14.20;;;;;;;;;;5058850;28;20472;-92
2022/01/14 01:44:06;;;;;;;31.77;12.77;;;;;;;;;;5075980;28;20157;-91
2022/01/14 01:46:31;;;;;;;26.10;12.83;;;;;;;;;;5075802;28;20116;-92
2022/01/14 01:48:56;;;;;;;41.70;13.33;;;;;;;;;;5075904;28;20048;-92
2022/01/14 01:51:22;;;;;;;33.93;12.87;;;;;;;;;;5075789;28;20028;-92
2022/01/14 01:53:47;;;;;;;27.10;12.93;;;;;;;;;;5075823;28;20021;-93
2022/01/14 01:56:13;;;;;;;57.77;14.13;;;;;;;;;;5075704;28;20093;-93
2022/01/14 01:58:39;;;;;;;46.53;13.53;;;;;;;;;;5075702;28;20055;-92
2022/01/14 02:01:05;;;;;;;30.73;13.13;;;;;;;;;;5074715;28;20066;-92
2022/01/14 02:03:30;;;;;;;37.60;13.90;;;;;;;;;;5075624;28;20044;-92
2022/01/14 02:05:55;;;;;;;43.00;14.00;;;;;;;;;;5075553;28;20016;-92
2022/01/14 02:08:21;;;;;;;39.73;13.97;;;;;;;;;;5075589;28;20523;-92
2022/01/14 02:10:46;;;;;;;55.70;14.47;;;;;;;;;;5075339;28;20074;-92
2022/01/14 02:13:11;;;;;;;43.50;14.27;;;;;;;;;;5075389;28;20528;-92
2022/01/14 02:15:47;;;;;;;25.73;12.70;;;;;;;;;;5075278;28;20098;-92
2022/01/14 02:23:24;;;;;;;36.70;14.23;;;;;;;;;;5076078;28;20063;-92
2022/01/14 02:25:49;;;;;;;38.30;13.83;;;;;;;;;;5079426;28;20028;-92
2022/01/14 02:28:16;;;;;;;28.37;14.13;;;;;;;;;;5075201;28;20028;-92
2022/01/14 02:30:42;;;;;;;38.87;13.40;;;;;;;;;;5074896;28;20032;-92
2022/01/14 02:33:09;;;;;;;49.00;13.10;;;;;;;;;;5076125;28;20480;-92
2022/01/14 02:35:35;;;;;;;41.80;12.97;;;;;;;;;;5074977;28;20025;-92
2022/01/14 02:38:00;;;;;;;51.17;13.37;;;;;;;;;;5074989;28;20021;-92
2022/01/14 02:40:26;;;;;;;53.83;15.77;;;;;;;;;;5073978;28;20464;-93
2022/01/14 02:42:52;;;;;;;35.17;15.17;;;;;;;;;;5072949;28;20112;-92
2022/01/14 02:45:18;;;;;;;37.40;15.27;;;;;;;;;;5074591;28;20479;-92
2022/01/14 02:47:44;;;;;;;51.93;14.73;;;;;;;;;;5074666;28;20543;-92
2022/01/14 02:50:14;;;;;;;42.93;15.27;;;;;;;;;;5073621;28;20052;-92
2022/01/14 02:55:17;;;;;;;34.73;14.63;;;;;;;;;;5075982;28;20028;-92
2022/01/14 02:57:43;;;;;;;32.13;13.43;;;;;;;;;;5074694;28;20029;-93
2022/01/14 03:00:09;;;;;;;61.77;13.53;;;;;;;;;;5074273;28;20124;-93
2022/01/14 03:02:35;;;;;;;29.07;14.37;;;;;;;;;;5073568;28;20064;-92
2022/01/14 03:05:01;;;;;;;43.10;15.37;;;;;;;;;;5074479;28;20048;-93
2022/01/14 03:07:26;;;;;;;32.67;13.57;;;;;;;;;;5074318;28;20016;-93
2022/01/14 03:09:52;;;;;;;37.33;13.87;;;;;;;;;;5073999;28;20024;-92
2022/01/14 03:12:17;;;;;;;29.40;14.83;;;;;;;;;;5074281;28;20032;-92
2022/01/14 03:14:42;;;;;;;44.57;14.57;;;;;;;;;;5074148;28;20611;-92
2022/01/14 03:17:07;;;;;;;32.23;15.00;;;;;;;;;;5066352;28;20041;-92
2022/01/14 03:19:32;;;;;;;34.57;15.77;;;;;;;;;;5054157;28;20064;-93
2022/01/14 03:22:18;;;;;;;28.97;15.50;;;;;;;;;;5054197;28;20028;-92
2022/01/14 03:27:08;;;;;;;48.20;15.27;;;;;;;;;;5055332;28;20017;-92
2022/01/14 03:29:34;;;;;;;30.50;14.07;;;;;;;;;;5053997;28;20052;-92
2022/01/14 03:31:59;;;;;;;61.70;16.57;;;;;;;;;;5054212;28;20075;-92
2022/01/14 03:34:25;;;;;;;41.03;15.97;;;;;;;;;;5053922;28;20060;-92
2022/01/14 03:36:50;;;;;;;44.57;16.70;;;;;;;;;;5053719;28;20465;-93
2022/01/14 03:39:16;;;;;;;31.43;15.77;;;;;;;;;;5053905;28;20024;-93
2022/01/14 03:41:41;;;;;;;28.07;14.73;;;;;;;;;;5053629;28;20032;-93
2022/01/14 03:44:07;;;;;;;35.73;14.53;;;;;;;;;;5053564;28;20025;-93
2022/01/14 03:46:32;;;;;;;36.40;13.70;;;;;;;;;;5054798;28;20460;-92
2022/01/14 03:48:57;;;;;;;41.80;15.83;;;;;;;;;;5053607;28;20187;-92
2022/01/14 03:51:23;;;;;;;53.67;16.13;;;;;;;;;;5053661;28;20028;-92
2022/01/14 03:53:49;;;;;;;77.43;16.50;;;;;;;;;;5062361;28;20059;-92
2022/01/14 03:56:14;;;;;;;35.67;15.33;;;;;;;;;;5073147;28;20035;-92
2022/01/14 03:58:40;;;;;;;42.43;15.87;;;;;;;;;;5073375;28;20064;-91
2022/01/14 04:01:07;;;;;;;43.47;15.57;;;;;;;;;;5073103;28;20020;-92
2022/01/14 04:03:32;;;;;;;54.57;15.60;;;;;;;;;;5073293;28;20013;-92
2022/01/14 04:05:57;;;;;;;38.10;15.13;;;;;;;;;;5073377;28;20052;-93
2022/01/14 04:08:23;;;;;;;29.53;15.17;;;;;;;;;;5073263;28;20553;-92
2022/01/14 04:10:51;;;;;;;53.93;16.83;;;;;;;;;;5073418;28;20027;-92
2022/01/14 04:13:21;;;;;;;35.03;15.90;;;;;;;;;;5073320;28;20017;-92
2022/01/14 04:15:47;;;;;;;41.70;16.43;;;;;;;;;;5072553;28;20128;-92
2022/01/14 04:18:15;;;;;;;40.93;15.97;;;;;;;;;;5073212;28;20059;-92
2022/01/14 04:20:41;;;;;;;32.67;15.90;;;;;;;;;;5074212;28;20102;-92
2022/01/14 04:23:06;;;;;;;26.10;14.50;;;;;;;;;;5073148;28;20017;-94
2022/01/14 04:25:33;;;;;;;59.43;16.67;;;;;;;;;;5073216;28;20017;-92
2022/01/14 04:27:58;;;;;;;39.03;15.57;;;;;;;;;;5073196;28;20074;-92
2022/01/14 04:30:24;;;;;;;35.33;15.53;;;;;;;;;;5070042;28;20028;-92
2022/01/14 04:32:50;;;;;;;30.27;15.17;;;;;;;;;;5053176;28;20024;-93
2022/01/14 04:35:15;;;;;;;30.67;14.40;;;;;;;;;;5052852;28;20104;-92
2022/01/14 04:37:40;;;;;;;31.37;14.37;;;;;;;;;;5052984;28;20495;-93
2022/01/14 04:40:06;;;;;;;30.60;14.53;;;;;;;;;;5053923;28;20024;-92
2022/01/14 04:42:32;;;;;;;32.07;16.53;;;;;;;;;;5052773;28;20029;-93
2022/01/14 04:44:57;;;;;;;32.23;15.43;;;;;;;;;;5052874;28;20516;-93
2022/01/14 04:49:57;;;;;;;39.70;15.73;;;;;;;;;;5054314;28;20033;-93
2022/01/14 04:52:23;;;;;;;38.53;15.47;;;;;;;;;;5053088;28;20159;-93
2022/01/14 04:54:48;;;;;;;29.73;14.53;;;;;;;;;;5052839;28;20046;-92
2022/01/14 04:57:16;;;;;;;27.30;14.87;;;;;;;;;;5052671;28;20032;-93
2022/01/14 04:59:43;;;;;;;34.57;15.20;;;;;;;;;;5052757;28;20082;-93
2022/01/14 05:02:08;;;;;;;30.07;14.17;;;;;;;;;;5052991;28;20032;-92
2022/01/14 05:04:34;;;;;;;28.57;14.30;;;;;;;;;;5052705;28;20017;-92
2022/01/14 05:07:03;;;;;;;30.67;14.77;;;;;;;;;;5052854;28;20104;-93
2022/01/14 05:09:36;;;;;;;32.27;16.60;;;;;;;;;;5052678;28;20453;-92
2022/01/14 05:12:07;;;;;;;37.37;15.63;;;;;;;;;;5052671;28;20031;-93
2022/01/14 05:14:32;;;;;;;33.03;15.80;;;;;;;;;;5056212;28;20017;-92
2022/01/14 05:16:58;;;;;;;33.87;16.23;;;;;;;;;;5072748;28;20056;-93
2022/01/14 05:19:23;;;;;;;32.43;15.90;;;;;;;;;;5076193;28;20036;-93
2022/01/14 05:21:48;;;;;;;30.87;15.13;;;;;;;;;;5076242;28;20055;-93
2022/01/14 05:24:13;;;;;;;32.97;15.60;;;;;;;;;;5076280;28;20017;-93
2022/01/14 05:26:39;;;;;;;28.57;14.43;;;;;;;;;;5076185;28;20016;-93
2022/01/14 05:29:04;;;;;;;40.13;16.67;;;;;;;;;;5075838;28;20021;-92
2022/01/14 05:31:43;;;;;;;38.43;15.97;;;;;;;;;;5076127;28;20047;-92
2022/01/14 05:34:08;;;;;;;33.70;16.30;;;;;;;;;;5076231;28;20146;-93
2022/01/14 05:36:33;;;;;;;32.27;14.53;;;;;;;;;;5074440;28;20048;-92
2022/01/14 05:39:01;;;;;;;31.70;16.17;;;;;;;;;;5076098;28;20408;-93
2022/01/14 05:41:27;;;;;;;34.80;16.13;;;;;;;;;;5076005;28;20024;-93
2022/01/14 05:43:52;;;;;;;26.83;14.20;;;;;;;;;;5075933;28;20020;-93
2022/01/14 05:46:17;;;;;;;33.63;14.80;;;;;;;;;;5075978;28;20027;-93
2022/01/14 05:48:42;;;;;;;30.60;14.47;;;;;;;;;;5075819;28;20051;-93
2022/01/14 05:51:07;;;;;;;31.90;15.07;;;;;;;;;;5075847;28;20016;-92
2022/01/14 05:53:33;;;;;;;32.73;14.13;;;;;;;;;;5075771;28;20020;-93
2022/01/14 05:55:58;;;;;;;25.87;13.53;;;;;;;;;;5075892;28;20128;-92
2022/01/14 05:58:23;;;;;;;30.13;14.90;;;;;;;;;;5075493;28;20063;-93
2022/01/14 06:00:48;;;;;;;29.77;15.60;;;;;;;;;;5059344;28;20059;-93
2022/01/14 06:03:13;;;;;;;33.20;15.93;;;;;;;;;;5075379;28;20027;-92
2022/01/14 06:05:39;;;;;;;34.53;15.43;;;;;;;;;;5075312;28;20046;-92
2022/01/14 06:08:05;;;;;;;31.30;15.70;;;;;;;;;;5075064;28;20153;-93
2022/01/14 06:10:31;;;;;;;34.60;17.23;;;;;;;;;;5075308;28;20024;-92
2022/01/14 06:12:56;;;;;;;38.57;19.27;;;;;;;;;;5075153;28;20380;-91
2022/01/14 06:15:21;;;;;;;36.03;17.97;;;;;;;;;;5075142;28;20488;-93
2022/01/14 06:17:46;;;;;;;28.63;15.40;;;;;;;;;;5074875;28;20680;-93
2022/01/14 06:20:12;;;;;;;31.20;16.03;;;;;;;;;;5074883;28;20025;-93
2022/01/14 06:22:37;;;;;;;28.10;15.10;;;;;;;;;;5075118;28;20016;-92
2022/01/14 06:25:03;;;;;;;28.57;14.63;;;;;;;;;;5074843;28;20063;-91
2022/01/14 06:27:28;;;;;;;28.50;14.07;;;;;;;;;;5079238;28;20024;-92
2022/01/14 06:29:53;;;;;;;29.00;14.50;;;;;;;;;;5075031;28;20074;-93
2022/01/14 06:32:18;;;;;;;29.27;14.40;;;;;;;;;;5075094;28;20074;-93
2022/01/14 06:34:43;;;;;;;28.20;14.97;;;;;;;;;;5075088;28;20021;-92
2022/01/14 06:37:09;;;;;;;26.63;15.17;;;;;;;;;;5069959;28;20415;-94
2022/01/14 06:39:34;;;;;;;31.23;15.03;;;;;;;;;;5055071;28;20410;-93
2022/01/14 06:41:59;;;;;;;29.83;15.83;;;;;;;;;;5054863;28;20429;-93
2022/01/14 06:44:24;;;;;;;37.00;18.60;;;;;;;;;;5054849;28;20017;-93
2022/01/14 06:46:50;;;;;;;48.20;22.03;;;;;;;;;;5054773;28;20028;-93
2022/01/14 06:49:15;;;;;;;61.70;31.10;;;;;;;;;;5054863;28;20017;-93
2022/01/14 06:51:40;;;;;;;62.90;31.33;;;;;;;;;;5055264;28;20040;-92
2022/01/14 06:54:05;;;;;;;43.37;20.43;;;;;;;;;;5057334;28;20025;-92
2022/01/14 06:56:30;;;;;;;38.90;18.40;;;;;;;;;;5075267;28;20044;-92
2022/01/14 06:58:56;;;;;;;35.40;17.27;;;;;;;;;;5067800;28;20032;-92
2022/01/14 07:01:21;;;;;;;38.07;16.87;;;;;;;;;;5073435;28;20383;-93
2022/01/14 07:03:46;;;;;;;32.20;16.37;;;;;;;;;;5079483;28;20062;-94
2022/01/14 07:06:11;;;;;;;38.23;17.87;;;;;;;;;;5079183;28;20456;-93
2022/01/14 07:08:37;;;;;;;33.70;15.97;;;;;;;;;;5072393;28;20012;-94
2022/01/14 07:11:06;;;;;;;37.80;19.67;;;;;;;;;;5054802;28;20028;-93
2022/01/14 07:13:31;;;;;;;33.87;17.63;;;;;;;;;;5054944;28;20492;-93
2022/01/14 07:15:56;;;;;;;34.23;17.73;;;;;;;;;;5055136;28;20028;-93
2022/01/14 07:18:21;;;;;;;35.00;16.07;;;;;;;;;;5055913;28;20039;-94
2022/01/14 07:20:47;;;;;;;33.30;16.10;;;;;;;;;;5070445;28;20020;-94
2022/01/14 07:23:12;;;;;;;36.00;16.53;;;;;;;;;;5077115;28;20099;-94
2022/01/14 07:25:39;;;;;;;33.10;17.10;;;;;;;;;;5077232;28;20021;-93
2022/01/14 07:28:04;;;;;;;34.00;16.80;;;;;;;;;;5061035;28;20021;-93
2022/01/14 07:30:30;;;;;;;31.27;15.80;;;;;;;;;;5064486;28;20077;-93
2022/01/14 07:32:55;;;;;;;29.13;14.77;;;;;;;;;;5078287;28;20017;-93
2022/01/14 07:35:20;;;;;;;26.30;14.67;;;;;;;;;;5074184;28;20020;-93
2022/01/14 07:37:45;;;;;;;29.93;15.23;;;;;;;;;;5056104;28;20028;-93
2022/01/14 07:40:11;;;;;;;38.60;16.07;;;;;;;;;;5069394;28;20039;-93
2022/01/14 07:42:36;;;;;;;34.67;16.10;;;;;;;;;;5073575;28;20021;-93
2022/01/14 07:45:02;;;;;;;36.90;16.37;;;;;;;;;;5078173;28;20070;-93
2022/01/14 07:47:27;;;;;;;33.97;16.57;;;;;;;;;;5059551;28;20103;-92
2022/01/14 07:49:53;;;;;;;34.13;15.70;;;;;;;;;;5076185;28;20127;-92
2022/01/14 07:52:18;;;;;;;32.73;15.17;;;;;;;;;;5075356;28;20066;-94
2022/01/14 07:54:43;;;;;;;33.03;16.10;;;;;;;;;;5059385;28;20047;-93
2022/01/14 07:57:09;;;;;;;29.90;14.73;;;;;;;;;;5075065;28;20017;-93
2022/01/14 07:59:35;;;;;;;30.77;15.27;;;;;;;;;;5081337;28;20032;-92
2022/01/14 08:02:00;;;;;;;34.47;15.57;;;;;;;;;;5070965;28;20032;-93
2022/01/14 08:04:26;;;;;;;36.73;16.07;;;;;;;;;;5055101;28;20358;-94
2022/01/14 08:06:54;;;;;;;36.27;16.37;;;;;;;;;;5065714;28;20028;-93
2022/01/14 08:09:20;;;;;;;28.67;14.87;;;;;;;;;;5073519;28;20016;-93
2022/01/14 08:11:46;;;;;;;34.90;15.97;;;;;;;;;;5074508;28;20059;-94
2022/01/14 08:14:12;;;;;;;29.67;14.63;;;;;;;;;;5074173;28;20028;-94
2022/01/14 08:16:37;;;;;;;33.30;15.57;;;;;;;;;;5073470;28;20032;-94
2022/01/14 08:19:02;;;;;;;33.47;16.63;;;;;;;;;;5073406;28;20028;-94
2022/01/14 08:21:28;;;;;;;33.63;16.23;;;;;;;;;;5073336;28;20123;-93
2022/01/14 08:23:53;;;;;;;32.87;16.27;;;;;;;;;;5073603;28;20103;-93
2022/01/14 08:26:18;;;;;;;32.30;16.67;;;;;;;;;;5090854;28;20012;-94
2022/01/14 08:28:43;;;;;;;32.93;15.70;;;;;;;;;;5073725;28;20420;-94
2022/01/14 08:31:09;;;;;;;37.00;17.63;;;;;;;;;;5073856;28;20017;-94
2022/01/14 08:33:34;;;;;;;36.43;16.80;;;;;;;;;;5077752;28;20025;-93
2022/01/14 08:35:59;;;;;;;33.80;16.17;;;;;;;;;;5077176;28;20052;-94
2022/01/14 08:38:25;;;;;;;36.57;17.17;;;;;;;;;;5076821;28;20076;-94
2022/01/14 08:40:50;;;;;;;37.30;18.93;;;;;;;;;;5071621;28;20063;-94
2022/01/14 08:43:15;;;;;;;40.20;17.83;;;;;;;;;;5087701;28;20024;-94
2022/01/14 08:45:40;;;;;;;42.20;21.53;;;;;;;;;;5078557;28;20020;-94
2022/01/14 08:48:06;;;;;;;80.03;35.87;;;;;;;;;;5097928;28;20019;-95
2022/01/14 08:50:34;;;;;;;156.83;67.57;;;;;;;;;;5089305;28;20138;-93
2022/01/14 08:53:00;;;;;;;120.80;53.83;;;;;;;;;;5070815;28;20032;-94
2022/01/14 08:55:25;;;;;;;82.43;37.90;;;;;;;;;;5057748;28;20020;-94
2022/01/14 08:57:51;;;;;;;51.83;25.47;;;;;;;;;;5059135;28;20035;-94
2022/01/14 09:00:17;;;;;;;55.77;28.97;;;;;;;;;;5077065;28;20020;-92
2022/01/14 09:02:42;;;;;;;43.17;23.77;;;;;;;;;;5075113;28;20020;-94
2022/01/14 09:05:08;;;;;;;47.77;24.40;;;;;;;;;;5074317;28;20016;-94
2022/01/14 09:07:34;;;;;;;60.23;31.20;;;;;;;;;;5073235;28;20456;-90
2022/01/14 09:09:59;;;;;;;68.07;32.90;;;;;;;;;;5078657;28;20017;-95
2022/01/14 09:12:24;;;;;;;70.80;33.97;;;;;;;;;;5079013;28;20101;-95
2022/01/14 09:15:14;;;;;;;;;;;;;;;;;;;;;
2022/01/14 09:17:40;;;;;;;68.63;34.20;;;;;;;;;;5080343;28;20523;-94
2022/01/14 09:20:06;;;;;;;53.40;28.03;;;;;;;;;;5074802;28;20059;-94
2022/01/14 09:22:35;;;;;;;58.23;28.20;;;;;;;;;;5067614;28;20021;-96
2022/01/14 09:25:00;;;;;;;52.90;25.27;;;;;;;;;;5083172;28;20017;-95
2022/01/14 09:27:29;;;;;;;52.00;25.23;;;;;;;;;;5086092;28;20028;-95
2022/01/14 09:29:57;;;;;;;58.30;26.23;;;;;;;;;;5088522;28;20033;-91
2022/01/14 09:32:22;;;;;;;66.70;33.33;;;;;;;;;;5083900;28;20065;-96
2022/01/14 09:34:49;;;;;;;69.90;34.03;;;;;;;;;;5085212;28;20028;-96
2022/01/14 09:37:18;;;;;;;63.17;30.73;;;;;;;;;;5073455;28;20017;-96
2022/01/14 09:39:43;;;;;;;56.80;29.17;;;;;;;;;;5074071;28;20041;-96
2022/01/14 09:42:10;;;;;;;47.37;22.70;;;;;;;;;;5089908;28;20058;-96
2022/01/14 09:44:35;;;;;;;42.33;21.70;;;;;;;;;;5091703;28;20024;-95
2022/01/14 09:47:02;;;;;;;54.37;23.60;;;;;;;;;;5091627;28;20081;-96
2022/01/14 09:49:28;;;;;;;47.90;25.10;;;;;;;;;;5091195;28;20393;-96
2022/01/14 09:51:53;;;;;;;51.73;24.67;;;;;;;;;;5091520;28;20016;-96
2022/01/14 09:54:19;;;;;;;61.23;25.27;;;;;;;;;;5093755;28;20009;-96
2022/01/14 09:56:45;;;;;;;53.23;23.37;;;;;;;;;;5090846;28;20059;-96
2022/01/14 09:59:10;;;;;;;50.60;23.00;;;;;;;;;;5090406;28;20024;-96
2022/01/14 10:01:40;;;;;;;50.57;24.70;;;;;;;;;;5090237;28;20439;-96
2022/01/14 10:04:06;;;;;;;57.27;24.93;;;;;;;;;;5088870;28;20024;-96
2022/01/14 10:06:46;;;;;;;62.20;27.63;;;;;;;;;;5087757;28;20496;-96
2022/01/14 10:09:11;;;;;;;62.70;29.50;;;;;;;;;;5101356;28;20020;-95
2022/01/14 10:11:38;;;;;;;69.63;31.47;;;;;;;;;;5086595;28;20032;-96
2022/01/14 10:14:09;;;;;;;67.87;31.63;;;;;;;;;;5085187;28;20023;-96
2022/01/14 10:16:35;;;;;;;63.57;28.27;;;;;;;;;;5086845;28;20025;-95
2022/01/14 10:19:00;;;;;;;64.90;31.23;;;;;;;;;;5087408;28;20048;-96
2022/01/14 10:21:33;;;;;;;68.70;31.40;;;;;;;;;;5087216;28;20032;-96
2022/01/14 10:23:59;;;;;;;64.72;30.10;;;;;;;;;;5088836;28;20021;-96
2022/01/14 10:26:26;;;;;;;68.67;30.33;;;;;;;;;;5089801;28;20021;-96
2022/01/14 10:28:59;;;;;;;81.30;32.63;;;;;;;;;;5091079;28;20029;-96
2022/01/14 10:31:35;;;;;;;64.43;31.43;;;;;;;;;;5089984;28;20025;-96
2022/01/14 10:34:10;;;;;;;69.30;31.87;;;;;;;;;;5089670;28;20017;-95
2022/01/14 10:36:36;;;;;;;72.17;31.77;;;;;;;;;;5089980;28;20111;-95
2022/01/14 10:39:16;;;;;;;70.20;31.93;;;;;;;;;;5089412;28;20035;-95
2022/01/14 10:41:42;;;;;;;70.70;31.83;;;;;;;;;;5089755;28;20028;-96
2022/01/14 10:44:24;;;;;;;65.47;31.30;;;;;;;;;;5089878;28;20020;-96
2022/01/14 10:46:50;;;;;;;;;;;;;;;;;;5088163;28;20020;-96
2022/01/14 10:49:32;;;;;;;64.57;30.67;;;;;;;;;;5088330;28;19974;-96
2022/01/14 10:52:15;;;;;;;69.70;31.67;;;;;;;;;;5089300;28;20027;-96
2022/01/14 10:54:41;;;;;;;70.80;33.57;;;;;;;;;;5089020;28;20025;-96
2022/01/14 10:57:14;;;;;;;66.03;32.30;;;;;;;;;;5088914;28;20057;-96
2022/01/14 10:59:39;;;;;;;67.67;31.50;;;;;;;;;;5090258;28;20028;-96
2022/01/14 11:02:25;;;;;;;67.83;29.77;;;;;;;;;;5090632;28;20036;-96
2022/01/14 11:05:09;;;;;;;68.47;31.73;;;;;;;;;;5091213;28;20031;-95
2022/01/14 11:07:34;;;;;;;67.13;31.20;;;;;;;;;;5091824;28;20100;-96
2022/01/14 11:10:00;;;;;;;68.53;30.60;;;;;;;;;;5089571;28;20016;-96
2022/01/14 11:12:26;;;;;;;66.67;30.00;;;;;;;;;;5090563;28;20020;-96
2022/01/14 11:14:51;;;;;;;63.20;31.10;;;;;;;;;;5090510;28;20023;-96
2022/01/14 11:17:17;;;;;;;69.20;32.10;;;;;;;;;;5089106;28;20043;-95
2022/01/14 11:19:46;;;;;;;67.83;31.20;;;;;;;;;;5089599;28;20039;-95
2022/01/14 11:24:57;;;;;;;70.93;31.80;;;;;;;;;;5091138;28;20027;-96
2022/01/14 11:27:23;;;;;;;60.73;28.83;;;;;;;;;;5072860;28;20025;-96
2022/01/14 11:29:49;;;;;;;62.53;29.87;;;;;;;;;;5090905;28;20017;-96
2022/01/14 11:32:15;;;;;;;63.20;29.23;;;;;;;;;;5090242;28;20046;-96
2022/01/14 11:34:42;;;;;;;60.47;30.90;;;;;;;;;;5089156;28;20027;-95
2022/01/14 11:37:14;;;;;;;61.03;28.70;;;;;;;;;;5089358;28;20024;-95
2022/01/14 11:39:40;;;;;;;65.07;29.88;;;;;;;;;;5090699;28;20017;-96
2022/01/14 11:42:12;;;;;;;65.50;29.40;;;;;;;;;;5089711;28;20031;-96
2022/01/14 11:44:43;;;;;;;68.68;30.77;;;;;;;;;;5088972;28;20087;-96
2022/01/14 11:47:37;;;;;;;61.77;31.40;;;;;;;;;;5087541;28;20039;-96
2022/01/14 11:50:04;;;;;;;64.23;29.80;;;;;;;;;;5080465;28;20093;-96
2022/01/14 11:52:33;;;;;;;65.33;30.53;;;;;;;;;;5087959;28;20029;-96
2022/01/14 11:54:58;;;;;;;61.00;28.77;;;;;;;;;;5102015;28;20020;-96
2022/01/14 11:57:45;;;;;;;65.93;30.17;;;;;;;;;;5089173;28;20047;-96
2022/01/14 12:00:30;;;;;;;59.80;31.17;;;;;;;;;;5086710;28;20051;-96
2022/01/14 12:02:57;;;;;;;62.07;30.13;;;;;;;;;;5087273;28;20075;-96
2022/01/14 12:05:22;;;;;;;60.73;30.00;;;;;;;;;;5087816;28;20024;-96
2022/01/14 12:08:13;;;;;;;57.50;29.37;;;;;;;;;;5087920;28;20023;-95
2022/01/14 12:10:41;;;;;;;69.23;31.23;;;;;;;;;;5086103;28;20040;-96
2022/01/14 12:13:18;;;;;;;60.33;31.07;;;;;;;;;;5086466;28;20025;-96
2022/01/14 12:15:47;;;;;;;62.47;30.43;;;;;;;;;;5087298;28;20384;-96
2022/01/14 12:18:12;;;;;;;75.37;32.10;;;;;;;;;;5071470;28;20135;-96
2022/01/14 12:20:47;;;;;;;62.27;31.13;;;;;;;;;;5066446;28;20025;-96
2022/01/14 12:23:17;;;;;;;67.80;31.70;;;;;;;;;;5067000;28;20024;-96
2022/01/14 12:25:44;;;;;;;74.10;33.73;;;;;;;;;;5066576;28;20017;-96
2022/01/14 12:28:17;;;;;;;76.00;33.80;;;;;;;;;;5067008;28;20036;-96
2022/01/14 12:30:42;;;;;;;;;;;;;;;;;;5067102;28;20028;-95
2022/01/14 12:33:07;;;;;;;70.63;33.20;;;;;;;;;;5068105;28;19927;-96
2022/01/14 12:35:35;;;;;;;68.00;32.80;;;;;;;;;;5065724;28;20032;-96
2022/01/14 12:38:01;;;;;;;64.83;31.63;;;;;;;;;;5064763;28;20084;-96
2022/01/14 12:40:28;;;;;;;67.73;30.80;;;;;;;;;;5066166;28;20032;-96
2022/01/14 12:42:55;;;;;;;67.83;28.83;;;;;;;;;;5063901;28;20376;-96
2022/01/14 12:45:27;;;;;;;64.57;30.73;;;;;;;;;;5067610;28;20021;-96
2022/01/14 12:47:58;;;;;;;;;;;;;;;;;;5086211;28;20005;-96
2022/01/14 12:50:26;;;;;;;66.87;34.40;;;;;;;;;;5084894;28;20023;-96
2022/01/14 12:52:51;;;;;;;71.43;33.93;;;;;;;;;;5085747;28;20016;-96
2022/01/14 12:55:18;;;;;;;75.97;35.37;;;;;;;;;;5085810;28;20026;-96
2022/01/14 12:57:44;;;;;;;75.77;34.07;;;;;;;;;;5087437;28;20016;-96
2022/01/14 13:00:10;;;;;;;75.60;34.30;;;;;;;;;;5089897;28;20032;-95
2022/01/14 13:02:36;;;;;;;82.77;36.73;;;;;;;;;;5088398;28;20107;-96
2022/01/14 13:05:16;;;;;;;73.93;34.73;;;;;;;;;;5088527;28;20087;-96
2022/01/14 13:07:42;;;;;;;80.50;34.97;;;;;;;;;;5084933;28;20020;-96
2022/01/14 13:10:08;;;;;;;72.37;35.27;;;;;;;;;;5087167;28;20024;-96
2022/01/14 13:12:39;;;;;;;77.47;34.20;;;;;;;;;;5086515;28;20099;-96
2022/01/14 13:15:05;;;;;;;70.87;32.80;;;;;;;;;;5085759;28;20028;-96
2022/01/14 13:17:33;;;;;;;75.67;34.47;;;;;;;;;;5067982;28;20028;-96
2022/01/14 13:20:01;;;;;;;89.17;36.13;;;;;;;;;;5064913;28;20021;-96
2022/01/14 13:22:28;;;;;;;87.83;34.07;;;;;;;;;;5064448;28;20025;-96
2022/01/14 13:24:54;;;;;;;73.00;31.60;;;;;;;;;;5065275;28;20097;-96
2022/01/14 13:27:28;;;;;;;76.00;33.50;;;;;;;;;;5064897;28;20013;-96
2022/01/14 13:29:53;;;;;;;77.17;31.83;;;;;;;;;;5064272;28;20021;-96
2022/01/14 13:32:20;;;;;;;73.87;32.07;;;;;;;;;;5078822;28;20028;-96
2022/01/14 13:34:46;;;;;;;67.50;32.73;;;;;;;;;;5086712;28;20032;-96
2022/01/14 13:37:12;;;;;;;79.27;32.00;;;;;;;;;;5088017;28;20050;-95
2022/01/14 13:39:37;;;;;;;76.57;31.30;;;;;;;;;;5087851;28;20032;-96
2022/01/14 13:42:03;;;;;;;83.90;33.23;;;;;;;;;;5090460;28;20490;-96
2022/01/14 13:44:33;;;;;;;74.40;30.57;;;;;;;;;;5089130;28;20039;-95
2022/01/14 13:47:01;;;;;;;78.83;33.10;;;;;;;;;;5088504;28;20027;-96
2022/01/14 13:49:27;;;;;;;84.57;33.83;;;;;;;;;;5087653;28;20062;-96
2022/01/14 13:52:06;;;;;;;77.20;33.97;;;;;;;;;;5102987;28;20032;-96
2022/01/14 13:54:31;;;;;;;81.07;32.30;;;;;;;;;;5109311;28;20382;-96
2022/01/14 13:57:06;;;;;;;86.50;34.13;;;;;;;;;;5108663;28;20044;-96
2022/01/14 13:59:32;;;;;;;84.67;35.60;;;;;;;;;;5108249;28;20020;-95
2022/01/14 14:01:59;;;;;;;75.17;32.23;;;;;;;;;;5108533;28;20024;-96
2022/01/14 14:04:26;;;;;;;80.90;32.90;;;;;;;;;;5110359;28;20027;-96
2022/01/14 14:07:03;;;;;;;80.70;32.73;;;;;;;;;;5108492;28;20044;-96
2022/01/14 14:09:35;;;;;;;70.53;30.40;;;;;;;;;;5109727;28;20021;-96
2022/01/14 14:18:19;;;;;;;77.70;29.83;;;;;;;;;;5108663;28;20051;-96
2022/01/14 14:20:45;;;;;;;71.83;30.83;;;;;;;;;;5085192;28;20025;-96
2022/01/14 14:23:24;;;;;;;83.73;30.93;;;;;;;;;;5072451;28;20024;-96
2022/01/14 14:25:51;;;;;;;73.47;32.13;;;;;;;;;;5089671;28;20013;-96
2022/01/14 14:28:17;;;;;;;79.30;30.90;;;;;;;;;;5090620;28;20038;-96
2022/01/14 14:30:48;;;;;;;78.70;33.33;;;;;;;;;;5090882;28;20048;-96
2022/01/14 14:33:14;;;;;;;85.43;33.67;;;;;;;;;;5090958;28;20025;-96
2022/01/14 14:35:40;;;;;;;84.77;33.27;;;;;;;;;;5089823;28;20098;-96
2022/01/14 14:38:08;;;;;;;86.67;33.83;;;;;;;;;;5089362;28;20055;-96
2022/01/14 14:40:35;;;;;;;86.43;35.93;;;;;;;;;;5089331;28;20088;-96
2022/01/14 14:43:01;;;;;;;90.97;35.13;;;;;;;;;;5089784;28;20013;-96
2022/01/14 14:45:29;;;;;;;89.07;36.70;;;;;;;;;;5090797;28;20040;-96
2022/01/14 14:48:08;;;;;;;85.53;36.60;;;;;;;;;;5093091;28;20048;-96